Decoded Metar for LKMT (OSTRAVA in CZECH REPUBLIC) (IATA:OSR) | Meteo·Mobile Aviation Weather
aviador You're here:

LKMT Decoded Metar

OSTRAVA in CZECH REPUBLIC
Report Time2019-03-23 18:30:00
UTC Time2019-03-23 20:32:28
Flight Rules Old
Wind200° at 06 kt
W.Decomp.*RWY 22: 5.5 kt HW 2.4 kt LCW
W.Rank200° ranks 7
Current wind is below 200° avg. (7.6)
Visibility9999 m
Phenomena:N/A
Clouds:N/A
Expected CloudBase > 3,200 ft AGL from Temp-Dew spread
CeilingNone
Temp14°C (ISA +1)
Dew Point06°C (59% RH)
AAT10.9°C
QNH1024 hPa
Density Alt679 ft
Elevation840 ft
Report Wrong Elevation
Raw Report
METAR LKMT 231830Z 20006KT CAVOK 14/06 Q1024 NOSIG=

Extra information for LKMT:More info

Metar Taf Metar & Taf Last 4 Metars F.Rules Stats Wind Profile Meteogram Temp Stats Airport Information Weather charts Add Link Nearby VenuesMetar ALERT Operation Metar Decoded Social comments